Time;durP1;ratioP1;P1;durP2;ratioP2;P2;SDS_P1;SDS_P2;PMS_P1;PMS_P2;Temp;Humidity;BMP_temperature;BMP_pressure;BME280_temperature;BME280_humidity;BME280_pressure;Samples;Min_cycle;Max_cycle;Signal;HPM_P1;HPM_P2
2022/06/17 00:02:08;;;;;;;4.80;3.97;;;;;;;;;;5052480;28;20234;-18
2022/06/17 00:04:37;;;;;;;6.85;4.55;;;;;;;;;;5041705;28;20234;-18
2022/06/17 00:07:05;;;;;;;6.18;4.38;;;;;;;;;;5052693;28;20288;-18
2022/06/17 00:09:32;;;;;;;7.13;4.68;;;;;;;;;;5053086;28;20240;-18
2022/06/17 00:12:00;;;;;;;6.28;4.38;;;;;;;;;;5040666;28;20245;-18
2022/06/17 00:14:31;;;;;;;4.40;3.97;;;;;;;;;;5056642;28;20234;-18
2022/06/17 00:16:58;;;;;;;5.35;4.30;;;;;;;;;;5052469;28;20230;-18
2022/06/17 00:19:26;;;;;;;5.18;3.95;;;;;;;;;;5052298;28;20234;-18
2022/06/17 00:21:53;;;;;;;6.28;3.70;;;;;;;;;;5051268;28;20249;-18
2022/06/17 00:24:21;;;;;;;7.30;3.80;;;;;;;;;;5050544;28;20242;-18
2022/06/17 00:26:49;;;;;;;4.57;4.03;;;;;;;;;;5043180;28;20256;-18
2022/06/17 00:29:20;;;;;;;8.43;4.25;;;;;;;;;;5052633;28;20238;-18
2022/06/17 00:31:48;;;;;;;7.45;4.43;;;;;;;;;;5052560;28;20238;-18
2022/06/17 00:34:16;;;;;;;6.55;4.10;;;;;;;;;;5052370;28;20241;-17
2022/06/17 00:36:44;;;;;;;7.40;3.88;;;;;;;;;;5051812;28;20226;-18
2022/06/17 00:39:13;;;;;;;5.00;3.55;;;;;;;;;;5052112;28;20234;-18
2022/06/17 00:41:40;;;;;;;5.80;4.10;;;;;;;;;;5051617;28;20237;-18
2022/06/17 00:44:08;;;;;;;4.47;3.75;;;;;;;;;;5051844;28;20237;-18
2022/06/17 00:46:39;;;;;;;6.50;4.07;;;;;;;;;;5050727;28;21209;-18
2022/06/17 00:49:18;;;;;;;4.47;4.03;;;;;;;;;;5052184;28;21009;-18
2022/06/17 00:51:46;;;;;;;5.95;4.38;;;;;;;;;;5052364;28;20232;-18
2022/06/17 00:54:20;;;;;;;5.88;4.72;;;;;;;;;;5051748;28;20232;-18
2022/06/17 00:56:47;;;;;;;6.40;4.40;;;;;;;;;;5051563;28;20693;-18
2022/06/17 00:59:15;;;;;;;5.05;4.20;;;;;;;;;;5051235;28;21075;-18
2022/06/17 01:01:44;;;;;;;5.97;4.55;;;;;;;;;;5051848;28;21236;-18
2022/06/17 01:04:13;;;;;;;9.88;4.35;;;;;;;;;;5051747;28;20230;-18
2022/06/17 01:06:41;;;;;;;7.13;4.55;;;;;;;;;;5049901;28;21291;-18
2022/06/17 01:11:53;;;;;;;5.05;4.53;;;;;;;;;;5033079;28;20708;-18
2022/06/17 01:14:21;;;;;;;8.38;4.28;;;;;;;;;;5044635;28;20230;-18
2022/06/17 01:16:48;;;;;;;4.80;4.30;;;;;;;;;;5056000;28;20226;-18
2022/06/17 01:19:24;;;;;;;6.53;4.43;;;;;;;;;;5050941;28;21061;-18
2022/06/17 01:21:52;;;;;;;4.55;4.15;;;;;;;;;;5051253;28;20241;-18
2022/06/17 01:24:21;;;;;;;8.77;6.38;;;;;;;;;;5051345;28;20230;-18
2022/06/17 01:26:48;;;;;;;6.00;4.82;;;;;;;;;;5051246;28;20288;-18
2022/06/17 01:29:16;;;;;;;4.93;4.43;;;;;;;;;;5050899;28;20238;-18
2022/06/17 01:31:43;;;;;;;8.98;5.07;;;;;;;;;;5051128;28;21028;-18
2022/06/17 01:34:13;;;;;;;5.40;4.90;;;;;;;;;;5051214;28;20234;-18
2022/06/17 01:36:41;;;;;;;5.05;4.55;;;;;;;;;;5050935;28;20893;-18
2022/06/17 01:39:08;;;;;;;8.18;5.03;;;;;;;;;;5050436;28;20234;-18
2022/06/17 01:41:37;;;;;;;5.80;4.35;;;;;;;;;;5051237;28;20728;-18
2022/06/17 01:44:05;;;;;;;4.97;4.47;;;;;;;;;;5051220;28;20982;-18
2022/06/17 01:46:33;;;;;;;5.80;4.32;;;;;;;;;;5051022;28;20709;-18
2022/06/17 01:49:02;;;;;;;7.00;5.22;;;;;;;;;;5051147;28;20234;-17
2022/06/17 01:51:29;;;;;;;6.53;4.75;;;;;;;;;;5041064;28;20230;-18
2022/06/17 01:53:57;;;;;;;7.60;4.63;;;;;;;;;;5051097;28;20245;-18
2022/06/17 01:56:27;;;;;;;5.22;4.57;;;;;;;;;;5051082;28;20708;-18
2022/06/17 01:58:56;;;;;;;9.40;5.07;;;;;;;;;;5037356;28;20229;-18
2022/06/17 02:01:23;;;;;;;6.50;5.18;;;;;;;;;;5040650;28;20227;-18
2022/06/17 02:03:52;;;;;;;5.07;4.55;;;;;;;;;;5049436;28;20230;-18
2022/06/17 02:06:20;;;;;;;5.95;4.40;;;;;;;;;;5050548;28;20234;-18
2022/06/17 02:08:47;;;;;;;6.15;5.05;;;;;;;;;;5050984;28;20705;-18
2022/06/17 02:11:15;;;;;;;6.47;5.07;;;;;;;;;;5046081;28;20242;-18
2022/06/17 02:13:42;;;;;;;6.28;4.93;;;;;;;;;;5040084;28;20241;-18
2022/06/17 02:16:11;;;;;;;6.00;4.80;;;;;;;;;;5039958;28;20241;-18
2022/06/17 02:18:39;;;;;;;5.38;4.90;;;;;;;;;;5039609;28;20227;-18
2022/06/17 02:21:07;;;;;;;5.55;5.03;;;;;;;;;;5043313;28;20269;-18
2022/06/17 02:23:34;;;;;;;6.45;5.30;;;;;;;;;;5035263;28;20227;-18
2022/06/17 02:26:02;;;;;;;6.32;5.03;;;;;;;;;;5039398;28;20248;-18
2022/06/17 02:28:29;;;;;;;5.22;4.82;;;;;;;;;;5041326;28;20237;-18
2022/06/17 02:30:57;;;;;;;6.03;5.43;;;;;;;;;;5044877;28;20280;-17
2022/06/17 02:33:25;;;;;;;5.70;5.10;;;;;;;;;;5046185;28;20241;-18
2022/06/17 02:35:54;;;;;;;8.07;5.25;;;;;;;;;;5035139;28;20241;-18
2022/06/17 02:38:22;;;;;;;7.00;5.22;;;;;;;;;;5037034;28;20257;-17
2022/06/17 02:40:50;;;;;;;7.95;4.97;;;;;;;;;;5048397;28;20234;-17
2022/06/17 02:43:18;;;;;;;6.38;5.10;;;;;;;;;;5048233;28;20230;-18
2022/06/17 02:45:46;;;;;;;5.68;5.18;;;;;;;;;;5047132;28;20671;-18
2022/06/17 02:48:15;;;;;;;6.57;5.10;;;;;;;;;;5049289;28;20230;-18
2022/06/17 02:50:44;;;;;;;5.47;4.97;;;;;;;;;;5049846;28;20226;-18
2022/06/17 02:53:12;;;;;;;5.97;5.32;;;;;;;;;;5049999;28;20234;-17
2022/06/17 02:55:40;;;;;;;8.75;5.28;;;;;;;;;;5048028;28;20702;-17
2022/06/17 02:58:11;;;;;;;7.30;5.13;;;;;;;;;;5047399;28;20627;-18
2022/06/17 03:00:38;;;;;;;7.65;5.90;;;;;;;;;;5050402;28;20237;-17
2022/06/17 03:03:06;;;;;;;6.68;6.07;;;;;;;;;;5050615;28;20241;-18
2022/06/17 03:05:35;;;;;;;8.80;6.25;;;;;;;;;;5050135;28;20721;-17
2022/06/17 03:08:06;;;;;;;8.93;5.93;;;;;;;;;;5049749;28;20226;-18
2022/06/17 03:10:34;;;;;;;8.65;5.78;;;;;;;;;;5050125;28;20223;-17
2022/06/17 03:13:02;;;;;;;8.15;5.50;;;;;;;;;;5050322;28;20348;-18
2022/06/17 03:15:29;;;;;;;7.53;5.72;;;;;;;;;;5049188;28;20226;-17
2022/06/17 03:17:57;;;;;;;7.15;5.72;;;;;;;;;;5042735;28;20230;-18
2022/06/17 03:20:26;;;;;;;7.32;5.78;;;;;;;;;;5047681;28;20724;-17
2022/06/17 03:23:09;;;;;;;6.72;4.95;;;;;;;;;;5049672;28;20994;-18
2022/06/17 03:25:39;;;;;;;13.75;5.80;;;;;;;;;;5049955;28;20230;-17
2022/06/17 03:28:07;;;;;;;8.00;5.63;;;;;;;;;;5049963;28;20733;-18
2022/06/17 03:30:36;;;;;;;6.60;5.75;;;;;;;;;;5047626;28;20232;-18
2022/06/17 03:33:05;;;;;;;8.50;6.32;;;;;;;;;;5049996;28;20736;-18
2022/06/17 03:35:33;;;;;;;7.55;5.78;;;;;;;;;;5049552;28;20266;-18
2022/06/17 03:38:01;;;;;;;8.38;6.20;;;;;;;;;;5050063;28;20226;-18
2022/06/17 03:40:30;;;;;;;9.90;6.82;;;;;;;;;;5052100;28;20230;-18
2022/06/17 03:43:02;;;;;;;8.55;6.32;;;;;;;;;;5052930;28;20781;-17
2022/06/17 03:45:30;;;;;;;9.77;5.38;;;;;;;;;;5052828;28;20238;-18
2022/06/17 03:47:58;;;;;;;6.85;5.82;;;;;;;;;;5053373;28;20241;-18
2022/06/17 03:50:26;;;;;;;10.20;5.55;;;;;;;;;;5052139;28;20226;-17
2022/06/17 03:52:55;;;;;;;7.90;6.22;;;;;;;;;;5052786;28;20238;-17
2022/06/17 03:55:23;;;;;;;7.45;6.18;;;;;;;;;;5043102;28;20269;-18
2022/06/17 03:57:51;;;;;;;6.60;6.00;;;;;;;;;;5051076;28;20229;-18
2022/06/17 04:00:21;;;;;;;8.88;6.57;;;;;;;;;;5052767;28;20234;-17
2022/06/17 04:02:48;;;;;;;8.10;6.10;;;;;;;;;;5051704;28;20230;-17
2022/06/17 04:05:16;;;;;;;9.27;6.38;;;;;;;;;;5051992;28;20237;-18
2022/06/17 04:07:43;;;;;;;6.55;5.93;;;;;;;;;;5052694;28;20662;-17
2022/06/17 04:10:11;;;;;;;7.03;6.32;;;;;;;;;;5052914;28;21001;-17
2022/06/17 04:12:39;;;;;;;7.00;6.35;;;;;;;;;;5052168;28;20306;-18
2022/06/17 04:15:08;;;;;;;8.82;6.20;;;;;;;;;;5052577;28;20238;-17
2022/06/17 04:17:38;;;;;;;9.55;6.40;;;;;;;;;;5052416;28;20712;-18
2022/06/17 04:20:18;;;;;;;8.18;6.40;;;;;;;;;;5052575;28;20718;-18
2022/06/17 04:22:45;;;;;;;6.82;6.13;;;;;;;;;;5052080;28;20634;-17
2022/06/17 04:25:19;;;;;;;9.55;6.47;;;;;;;;;;5039164;28;20671;-18
2022/06/17 04:28:00;;;;;;;8.75;6.20;;;;;;;;;;5052217;28;20237;-18
2022/06/17 04:30:28;;;;;;;9.90;6.18;;;;;;;;;;5051639;28;20230;-18
2022/06/17 04:32:57;;;;;;;8.95;6.47;;;;;;;;;;5052324;28;20234;-17
2022/06/17 04:35:25;;;;;;;7.85;6.20;;;;;;;;;;5051431;28;20229;-18
2022/06/17 04:37:52;;;;;;;10.10;6.03;;;;;;;;;;5038862;28;20983;-17
2022/06/17 04:40:23;;;;;;;9.00;6.70;;;;;;;;;;5052189;28;21071;-17
2022/06/17 04:42:51;;;;;;;10.88;6.63;;;;;;;;;;5051931;28;20237;-18
2022/06/17 04:45:19;;;;;;;9.45;6.32;;;;;;;;;;5051382;28;20222;-17
2022/06/17 04:47:46;;;;;;;7.68;6.88;;;;;;;;;;5052039;28;20721;-18
2022/06/17 04:50:15;;;;;;;8.57;6.80;;;;;;;;;;5051740;28;20625;-18
2022/06/17 04:52:43;;;;;;;9.90;6.57;;;;;;;;;;5054237;28;20226;-18
2022/06/17 04:55:12;;;;;;;11.32;6.90;;;;;;;;;;5043991;28;20230;-18
2022/06/17 04:57:39;;;;;;;7.20;6.47;;;;;;;;;;5048156;28;20237;-18
2022/06/17 05:00:07;;;;;;;8.27;6.80;;;;;;;;;;5048071;28;20241;-17
2022/06/17 05:02:35;;;;;;;9.63;7.40;;;;;;;;;;5047303;28;20282;-17
2022/06/17 05:05:03;;;;;;;14.60;6.70;;;;;;;;;;5050786;28;20226;-17
2022/06/17 05:07:32;;;;;;;8.27;7.05;;;;;;;;;;5049537;28;20245;-18
2022/06/17 05:10:20;;;;;;;10.60;7.35;;;;;;;;;;5041384;28;20324;-17
2022/06/17 05:12:50;;;;;;;11.43;6.80;;;;;;;;;;5051414;28;20694;-18
2022/06/17 05:15:18;;;;;;;8.80;6.97;;;;;;;;;;5052171;28;20226;-18
2022/06/17 05:17:46;;;;;;;7.63;6.40;;;;;;;;;;5051489;28;20222;-17
2022/06/17 05:20:14;;;;;;;9.13;6.18;;;;;;;;;;5040366;28;20747;-18
2022/06/17 05:22:43;;;;;;;7.57;6.72;;;;;;;;;;5051159;28;20253;-18
2022/06/17 05:25:12;;;;;;;9.65;7.07;;;;;;;;;;5051382;28;20705;-18
2022/06/17 05:27:39;;;;;;;8.55;6.72;;;;;;;;;;5051679;28;20349;-18
2022/06/17 05:30:07;;;;;;;8.25;6.90;;;;;;;;;;5050891;28;20232;-18
2022/06/17 05:32:34;;;;;;;7.75;6.88;;;;;;;;;;5051303;28;21248;-18
2022/06/17 05:35:01;;;;;;;10.52;7.68;;;;;;;;;;5051225;28;21016;-18
2022/06/17 05:37:29;;;;;;;8.00;7.10;;;;;;;;;;5051280;28;20238;-17
2022/06/17 05:39:58;;;;;;;10.00;7.93;;;;;;;;;;5051576;28;20234;-17
2022/06/17 05:42:27;;;;;;;10.57;6.90;;;;;;;;;;5048674;28;20234;-18
2022/06/17 05:44:54;;;;;;;10.43;7.55;;;;;;;;;;5050779;28;20228;-18
2022/06/17 05:47:21;;;;;;;16.33;7.57;;;;;;;;;;5050057;28;20246;-17
2022/06/17 05:49:49;;;;;;;11.55;7.53;;;;;;;;;;5038401;28;20234;-18
2022/06/17 05:52:16;;;;;;;7.65;6.50;;;;;;;;;;5041349;28;21153;-17
2022/06/17 05:54:44;;;;;;;9.77;6.45;;;;;;;;;;5050810;28;20239;-18
2022/06/17 05:57:13;;;;;;;7.13;5.95;;;;;;;;;;5051115;28;20237;-18
2022/06/17 05:59:40;;;;;;;10.50;6.45;;;;;;;;;;5051220;28;20226;-17
2022/06/17 06:02:08;;;;;;;12.75;7.07;;;;;;;;;;5047555;28;20230;-18
2022/06/17 06:04:35;;;;;;;11.95;7.05;;;;;;;;;;5048489;28;20260;-17
2022/06/17 06:07:03;;;;;;;10.25;7.00;;;;;;;;;;5049050;28;20248;-17
2022/06/17 06:09:30;;;;;;;13.75;6.95;;;;;;;;;;5052748;28;20238;-17
2022/06/17 06:11:58;;;;;;;10.55;7.43;;;;;;;;;;5051573;28;20244;-17
2022/06/17 06:14:26;;;;;;;13.93;6.95;;;;;;;;;;5051512;28;20229;-17
2022/06/17 06:16:54;;;;;;;15.50;7.78;;;;;;;;;;5056177;28;20241;-17
2022/06/17 06:19:21;;;;;;;22.00;7.35;;;;;;;;;;5054666;28;20230;-17
2022/06/17 06:21:49;;;;;;;13.57;7.18;;;;;;;;;;5056561;28;20244;-18
2022/06/17 06:24:16;;;;;;;19.88;7.35;;;;;;;;;;5051736;28;20237;-18
2022/06/17 06:26:43;;;;;;;17.15;6.80;;;;;;;;;;5054593;28;20253;-18
2022/06/17 06:29:11;;;;;;;9.07;6.18;;;;;;;;;;5056015;28;20232;-18
2022/06/17 06:31:39;;;;;;;12.98;6.05;;;;;;;;;;5052067;28;20242;-17
2022/06/17 06:34:07;;;;;;;14.30;6.97;;;;;;;;;;5050124;28;20234;-18
2022/06/17 06:36:41;;;;;;;12.80;6.65;;;;;;;;;;5048172;28;20668;-17
2022/06/17 06:39:08;;;;;;;8.70;6.25;;;;;;;;;;5051457;28;20952;-17
2022/06/17 06:41:35;;;;;;;11.05;5.80;;;;;;;;;;5049849;28;20268;-17
2022/06/17 06:44:03;;;;;;;10.80;5.85;;;;;;;;;;5053925;28;20984;-17
2022/06/17 06:46:30;;;;;;;14.05;6.18;;;;;;;;;;5045287;28;20235;-17
2022/06/17 06:48:59;;;;;;;9.13;5.60;;;;;;;;;;5048045;28;20329;-17
2022/06/17 06:51:26;;;;;;;6.75;4.00;;;;;;;;;;5049509;28;20241;-17
2022/06/17 06:53:54;;;;;;;10.18;4.90;;;;;;;;;;5049246;28;20234;-18
2022/06/17 06:56:22;;;;;;;12.68;5.32;;;;;;;;;;5049332;28;20233;-17
2022/06/17 06:58:49;;;;;;;9.23;5.10;;;;;;;;;;5047670;28;20238;-18
2022/06/17 07:01:17;;;;;;;9.48;5.35;;;;;;;;;;5049738;28;20709;-18
2022/06/17 07:03:44;;;;;;;13.57;5.43;;;;;;;;;;5049832;28;20605;-17
2022/06/17 07:06:13;;;;;;;15.88;4.43;;;;;;;;;;5049159;28;20266;-18
2022/06/17 07:08:41;;;;;;;7.95;4.47;;;;;;;;;;5049612;28;20248;-18
2022/06/17 07:11:08;;;;;;;10.85;5.60;;;;;;;;;;5050085;28;20792;-17
2022/06/17 07:13:42;;;;;;;8.35;4.22;;;;;;;;;;5052810;28;20237;-18
2022/06/17 07:16:10;;;;;;;14.90;4.57;;;;;;;;;;5053601;28;20234;-18
2022/06/17 07:18:38;;;;;;;8.07;4.25;;;;;;;;;;5045760;28;20226;-18
2022/06/17 07:21:07;;;;;;;8.13;3.45;;;;;;;;;;5052505;28;20242;-17
2022/06/17 07:23:37;;;;;;;8.50;4.30;;;;;;;;;;5052363;28;20230;-18
2022/06/17 07:26:05;;;;;;;8.55;4.53;;;;;;;;;;5053525;28;20233;-18
2022/06/17 07:28:32;;;;;;;6.07;3.92;;;;;;;;;;5053248;28;20268;-18
2022/06/17 07:31:00;;;;;;;7.13;4.00;;;;;;;;;;5052605;28;20222;-18
2022/06/17 07:33:28;;;;;;;7.45;3.70;;;;;;;;;;5052344;28;20234;-17
2022/06/17 07:35:57;;;;;;;5.80;3.60;;;;;;;;;;5048411;28;20235;-17
2022/06/17 07:41:12;;;;;;;4.75;3.38;;;;;;;;;;5052711;28;21030;-18
2022/06/17 07:43:39;;;;;;;5.45;3.80;;;;;;;;;;5045526;28;20226;-17
2022/06/17 07:46:07;;;;;;;10.45;3.20;;;;;;;;;;5053015;28;20261;-17
2022/06/17 07:48:34;;;;;;;8.32;3.42;;;;;;;;;;5052748;28;20344;-18
2022/06/17 07:51:02;;;;;;;6.68;3.70;;;;;;;;;;5052817;28;20238;-17
2022/06/17 07:53:30;;;;;;;10.30;3.72;;;;;;;;;;5052279;28;21031;-18
2022/06/17 07:55:58;;;;;;;7.72;3.60;;;;;;;;;;5052915;28;20230;-17
2022/06/17 07:58:27;;;;;;;7.10;3.55;;;;;;;;;;5038553;28;20229;-17
2022/06/17 08:00:55;;;;;;;5.55;3.72;;;;;;;;;;5052911;28;20237;-17
2022/06/17 08:03:23;;;;;;;5.38;3.22;;;;;;;;;;5051597;28;20226;-18
2022/06/17 08:05:51;;;;;;;6.80;3.40;;;;;;;;;;5052834;28;20232;-18
2022/06/17 08:08:21;;;;;;;18.75;4.90;;;;;;;;;;5052558;28;20968;-18
2022/06/17 08:10:49;;;;;;;8.25;3.65;;;;;;;;;;5052701;28;20238;-18
2022/06/17 08:13:16;;;;;;;10.65;4.32;;;;;;;;;;5051874;28;20256;-18
2022/06/17 08:15:45;;;;;;;9.57;3.25;;;;;;;;;;5045828;28;20241;-18
2022/06/17 08:18:12;;;;;;;6.30;4.15;;;;;;;;;;5054131;28;20240;-18
2022/06/17 08:20:41;;;;;;;12.35;3.30;;;;;;;;;;5051537;28;20249;-18
2022/06/17 08:23:08;;;;;;;7.40;3.13;;;;;;;;;;5055347;28;20771;-18
2022/06/17 08:25:35;;;;;;;4.72;3.55;;;;;;;;;;5049014;28;20246;-18
2022/06/17 08:28:04;;;;;;;4.75;3.20;;;;;;;;;;5055872;28;20290;-18
2022/06/17 08:30:32;;;;;;;6.47;3.67;;;;;;;;;;5048655;28;20439;-18
2022/06/17 08:33:01;;;;;;;7.10;3.10;;;;;;;;;;5048453;28;20226;-18
2022/06/17 08:35:48;;;;;;;6.80;3.08;;;;;;;;;;5054095;28;20235;-18
2022/06/17 08:38:17;;;;;;;6.00;2.92;;;;;;;;;;5052010;28;20649;-18
2022/06/17 08:40:46;;;;;;;5.95;2.88;;;;;;;;;;5048455;28;20725;-18
2022/06/17 08:43:31;;;;;;;6.00;2.63;;;;;;;;;;5046028;28;21027;-18
2022/06/17 08:46:01;;;;;;;4.43;2.33;;;;;;;;;;5048995;28;20249;-18
2022/06/17 08:48:33;;;;;;;5.50;2.58;;;;;;;;;;5052176;28;20237;-18
2022/06/17 08:51:02;;;;;;;9.25;3.08;;;;;;;;;;5052018;28;20574;-18
2022/06/17 08:53:42;;;;;;;4.57;2.33;;;;;;;;;;5053221;28;20285;-18
2022/06/17 08:56:10;;;;;;;4.78;2.60;;;;;;;;;;5051385;28;20234;-18
2022/06/17 08:58:40;;;;;;;5.78;2.33;;;;;;;;;;5048291;28;20234;-18
2022/06/17 09:01:11;;;;;;;4.65;2.30;;;;;;;;;;5047289;28;20645;-18
2022/06/17 09:03:45;;;;;;;4.10;2.40;;;;;;;;;;5047478;28;20230;-18
2022/06/17 09:06:15;;;;;;;4.75;2.65;;;;;;;;;;5053405;28;20236;-18
2022/06/17 09:08:49;;;;;;;4.10;2.60;;;;;;;;;;5054437;28;20245;-18
2022/06/17 09:11:18;;;;;;;5.70;2.75;;;;;;;;;;5044974;28;20229;-18
2022/06/17 09:13:48;;;;;;;3.20;2.30;;;;;;;;;;5048047;28;20242;-18
2022/06/17 09:16:16;;;;;;;4.40;2.53;;;;;;;;;;5043302;28;20230;-18
2022/06/17 09:18:45;;;;;;;6.68;2.88;;;;;;;;;;5046346;28;20420;-18
2022/06/17 09:21:14;;;;;;;10.07;2.90;;;;;;;;;;5042714;28;20238;-18
2022/06/17 09:23:41;;;;;;;6.55;2.70;;;;;;;;;;5053181;28;20229;-18
2022/06/17 09:26:10;;;;;;;4.68;2.80;;;;;;;;;;5051922;28;20258;-18
2022/06/17 09:28:39;;;;;;;6.30;2.85;;;;;;;;;;5054631;28;20245;-18
2022/06/17 09:31:06;;;;;;;4.40;2.47;;;;;;;;;;5058131;28;20234;-18
2022/06/17 09:33:35;;;;;;;4.72;2.60;;;;;;;;;;5047061;28;20240;-18
2022/06/17 09:36:06;;;;;;;8.88;2.78;;;;;;;;;;5046386;28;20234;-18
2022/06/17 09:38:34;;;;;;;6.50;2.70;;;;;;;;;;5051104;28;20337;-18
2022/06/17 09:41:02;;;;;;;5.65;2.80;;;;;;;;;;5053039;28;20241;-18
2022/06/17 09:43:30;;;;;;;8.00;2.95;;;;;;;;;;5043865;28;20230;-17
2022/06/17 09:45:59;;;;;;;6.75;3.05;;;;;;;;;;5048797;28;20234;-18
2022/06/17 09:48:26;;;;;;;5.72;2.67;;;;;;;;;;5049045;28;20250;-18
2022/06/17 09:50:55;;;;;;;5.80;3.05;;;;;;;;;;5045069;28;20242;-18
2022/06/17 09:53:24;;;;;;;9.30;2.90;;;;;;;;;;5050170;28;21067;-17
2022/06/17 09:55:53;;;;;;;6.85;2.58;;;;;;;;;;5053339;28;20359;-18
2022/06/17 09:58:22;;;;;;;6.68;2.70;;;;;;;;;;5047900;28;20243;-17
2022/06/17 10:00:51;;;;;;;5.03;2.67;;;;;;;;;;5044606;28;20238;-17
2022/06/17 10:03:20;;;;;;;9.98;2.80;;;;;;;;;;5047925;28;20244;-17
2022/06/17 10:05:49;;;;;;;6.55;2.85;;;;;;;;;;5047295;28;20361;-17
2022/06/17 10:08:19;;;;;;;5.72;3.10;;;;;;;;;;5052511;28;20922;-17
2022/06/17 10:10:51;;;;;;;6.55;2.83;;;;;;;;;;5050633;28;20237;-17
2022/06/17 10:13:21;;;;;;;7.53;2.90;;;;;;;;;;5053972;28;20242;-17
2022/06/17 10:18:34;;;;;;;4.95;2.80;;;;;;;;;;5050079;28;20717;-18
2022/06/17 10:21:05;;;;;;;4.90;2.72;;;;;;;;;;5048326;28;22087;-17
2022/06/17 10:23:35;;;;;;;4.65;2.60;;;;;;;;;;5048260;28;20713;-18
2022/06/17 10:26:07;;;;;;;6.38;2.47;;;;;;;;;;5047468;28;20238;-17
2022/06/17 10:28:42;;;;;;;7.35;3.03;;;;;;;;;;5054190;28;20238;-17
2022/06/17 10:31:11;;;;;;;5.95;3.10;;;;;;;;;;5049986;28;20237;-17
2022/06/17 10:33:39;;;;;;;4.00;2.67;;;;;;;;;;5054165;28;20720;-17
2022/06/17 10:36:06;;;;;;;5.95;3.20;;;;;;;;;;5056336;28;20274;-17
2022/06/17 10:38:36;;;;;;;5.13;2.90;;;;;;;;;;5053505;28;20985;-17
2022/06/17 10:41:04;;;;;;;6.25;3.10;;;;;;;;;;5055842;28;20229;-17
2022/06/17 10:43:32;;;;;;;6.82;3.08;;;;;;;;;;5048993;28;20234;-17
2022/06/17 10:46:00;;;;;;;6.40;2.83;;;;;;;;;;5047432;28;20441;-17
2022/06/17 10:48:30;;;;;;;5.75;3.40;;;;;;;;;;5052391;28;21008;-17
2022/06/17 10:50:58;;;;;;;6.43;3.05;;;;;;;;;;5051793;28;20230;-17
2022/06/17 10:53:28;;;;;;;10.85;3.78;;;;;;;;;;5056590;28;20226;-17
2022/06/17 10:55:57;;;;;;;3.97;3.13;;;;;;;;;;5065920;28;20237;-17
2022/06/17 10:58:26;;;;;;;7.13;3.80;;;;;;;;;;5048897;28;20234;-17
2022/06/17 11:00:54;;;;;;;9.85;3.92;;;;;;;;;;5047938;28;20930;-17
2022/06/17 11:03:23;;;;;;;5.70;3.20;;;;;;;;;;5048794;28;20238;-17
2022/06/17 11:05:55;;;;;;;5.45;3.13;;;;;;;;;;5058707;28;20778;-17
2022/06/17 11:08:23;;;;;;;4.82;3.13;;;;;;;;;;5051602;28;21100;-17
2022/06/17 11:10:52;;;;;;;7.80;3.22;;;;;;;;;;5054107;28;20230;-17
2022/06/17 11:13:19;;;;;;;6.07;3.38;;;;;;;;;;5052912;28;20241;-18
2022/06/17 11:15:48;;;;;;;6.47;3.47;;;;;;;;;;5059446;28;20238;-17
2022/06/17 11:18:17;;;;;;;6.72;3.28;;;;;;;;;;5053581;28;20225;-17
2022/06/17 11:20:52;;;;;;;4.85;3.10;;;;;;;;;;5055656;28;20268;-18
2022/06/17 11:23:22;;;;;;;6.30;3.43;;;;;;;;;;5048371;28;20852;-17
2022/06/17 11:25:49;;;;;;;14.18;3.80;;;;;;;;;;5046163;28;20492;-18
2022/06/17 11:28:22;;;;;;;4.43;3.53;;;;;;;;;;5051750;28;20238;-17
2022/06/17 11:30:52;;;;;;;4.35;3.15;;;;;;;;;;5050349;28;20234;-16
2022/06/17 11:33:23;;;;;;;5.25;3.20;;;;;;;;;;5057891;28;20238;-17
2022/06/17 11:35:59;;;;;;;5.93;2.97;;;;;;;;;;5050634;28;20737;-18
2022/06/17 11:38:26;;;;;;;7.05;3.13;;;;;;;;;;5058992;28;20982;-17
2022/06/17 11:41:19;;;;;;;4.45;3.38;;;;;;;;;;5049254;28;20956;-18
2022/06/17 11:43:47;;;;;;;4.10;3.00;;;;;;;;;;5045209;28;20235;-17
2022/06/17 11:46:17;;;;;;;6.47;2.83;;;;;;;;;;5048527;28;20230;-18
2022/06/17 11:48:44;;;;;;;5.22;2.70;;;;;;;;;;5049490;28;20800;-17
2022/06/17 11:51:12;;;;;;;4.75;3.17;;;;;;;;;;5044714;28;20238;-17
2022/06/17 11:53:43;;;;;;;4.43;2.90;;;;;;;;;;5048542;28;20242;-17
2022/06/17 11:56:11;;;;;;;4.95;3.05;;;;;;;;;;5060652;28;20285;-17
2022/06/17 11:59:00;;;;;;;3.60;2.72;;;;;;;;;;5056029;28;20253;-17
2022/06/17 12:01:28;;;;;;;8.82;2.72;;;;;;;;;;5052499;28;21318;-17
2022/06/17 12:03:56;;;;;;;6.32;2.88;;;;;;;;;;5058137;28;20230;-17
2022/06/17 12:06:24;;;;;;;5.70;2.92;;;;;;;;;;5050117;28;20292;-17
2022/06/17 12:08:54;;;;;;;4.22;2.60;;;;;;;;;;5053196;28;20236;-17
2022/06/17 12:11:24;;;;;;;2.83;2.55;;;;;;;;;;5050701;28;20249;-17
2022/06/17 12:13:52;;;;;;;4.47;2.60;;;;;;;;;;5047940;28;20702;-18
2022/06/17 12:16:22;;;;;;;5.53;2.80;;;;;;;;;;5056349;28;20234;-17
2022/06/17 12:18:53;;;;;;;5.15;2.65;;;;;;;;;;5055969;28;20233;-17
2022/06/17 12:21:25;;;;;;;3.42;2.58;;;;;;;;;;5053499;28;20245;-17
2022/06/17 12:23:52;;;;;;;4.60;2.75;;;;;;;;;;5052526;28;20362;-17
2022/06/17 12:26:23;;;;;;;3.78;2.63;;;;;;;;;;5054397;28;20292;-17
2022/06/17 12:28:53;;;;;;;2.65;2.20;;;;;;;;;;5051667;28;20230;-17
2022/06/17 12:31:25;;;;;;;3.95;2.35;;;;;;;;;;5045759;28;20701;-17
2022/06/17 12:33:56;;;;;;;3.15;2.58;;;;;;;;;;5049874;28;20276;-17
2022/06/17 12:36:25;;;;;;;6.05;2.55;;;;;;;;;;5056323;28;20249;-17
2022/06/17 12:38:53;;;;;;;4.35;2.50;;;;;;;;;;5049982;28;20230;-17
2022/06/17 12:41:22;;;;;;;3.42;2.50;;;;;;;;;;5052136;28;20233;-18
2022/06/17 12:43:54;;;;;;;2.42;2.28;;;;;;;;;;5046772;28;20729;-17
2022/06/17 12:46:22;;;;;;;4.93;2.40;;;;;;;;;;5049597;28;20305;-17
2022/06/17 12:48:51;;;;;;;7.53;2.65;;;;;;;;;;5045983;28;20839;-17
2022/06/17 12:54:09;;;;;;;3.83;2.75;;;;;;;;;;5048270;28;20230;-17
2022/06/17 12:56:39;;;;;;;4.45;2.90;;;;;;;;;;5050635;28;20230;-17
2022/06/17 12:59:18;;;;;;;3.83;2.90;;;;;;;;;;5047068;28;20234;-17
2022/06/17 13:01:46;;;;;;;6.95;3.05;;;;;;;;;;5049320;28;20239;-17
2022/06/17 13:04:15;;;;;;;6.22;3.38;;;;;;;;;;5050208;28;20256;-17
2022/06/17 13:06:48;;;;;;;6.15;3.00;;;;;;;;;;5054306;28;20241;-16
2022/06/17 13:09:17;;;;;;;8.93;3.30;;;;;;;;;;5048865;28;20242;-16
2022/06/17 13:11:46;;;;;;;6.33;3.03;;;;;;;;;;5049457;28;20593;-16
2022/06/17 13:14:17;;;;;;;6.13;3.25;;;;;;;;;;5051714;28;20460;-18
2022/06/17 13:16:47;;;;;;;11.68;3.22;;;;;;;;;;5062081;28;20295;-16
2022/06/17 13:19:16;;;;;;;7.10;3.20;;;;;;;;;;5051153;28;20234;-16
2022/06/17 13:21:45;;;;;;;9.55;3.10;;;;;;;;;;5055206;28;20242;-16
2022/06/17 13:24:16;;;;;;;8.93;3.42;;;;;;;;;;5050118;28;20269;-16
2022/06/17 13:26:44;;;;;;;4.55;3.28;;;;;;;;;;5056404;28;20230;-17
2022/06/17 13:29:13;;;;;;;7.82;3.10;;;;;;;;;;5049195;28;20697;-16
2022/06/17 13:31:42;;;;;;;12.27;3.28;;;;;;;;;;5049799;28;20253;-16
2022/06/17 13:34:10;;;;;;;5.18;3.50;;;;;;;;;;5049177;28;20226;-16
2022/06/17 13:36:38;;;;;;;5.22;2.97;;;;;;;;;;5050603;28;20967;-16
2022/06/17 13:39:07;;;;;;;4.20;3.65;;;;;;;;;;5049403;28;20232;-16
2022/06/17 13:41:38;;;;;;;10.10;3.53;;;;;;;;;;5048824;28;20239;-16
2022/06/17 13:44:07;;;;;;;5.15;3.10;;;;;;;;;;5051743;28;21045;-16
2022/06/17 13:46:37;;;;;;;7.68;3.33;;;;;;;;;;5051572;28;20256;-16
2022/06/17 13:49:06;;;;;;;6.50;3.40;;;;;;;;;;5053529;28;20228;-16
2022/06/17 13:51:34;;;;;;;10.80;3.58;;;;;;;;;;5046350;28;20254;-16
2022/06/17 13:54:04;;;;;;;9.15;3.40;;;;;;;;;;5055379;28;20234;-16
2022/06/17 13:56:33;;;;;;;8.38;3.80;;;;;;;;;;5052958;28;20232;-16
2022/06/17 13:59:02;;;;;;;8.60;3.65;;;;;;;;;;5050284;28;20709;-16
2022/06/17 14:01:35;;;;;;;11.40;3.40;;;;;;;;;;5045959;28;20264;-18
2022/06/17 14:04:07;;;;;;;7.43;3.33;;;;;;;;;;5048043;28;20776;-18
2022/06/17 14:06:49;;;;;;;5.82;3.33;;;;;;;;;;5049966;28;20234;-17
2022/06/17 14:09:24;;;;;;;8.95;3.55;;;;;;;;;;5045889;28;20233;-18
2022/06/17 14:11:52;;;;;;;5.97;3.38;;;;;;;;;;5041983;28;20237;-18
2022/06/17 14:14:34;;;;;;;12.05;3.85;;;;;;;;;;5047228;28;20240;-17
2022/06/17 14:17:02;;;;;;;13.07;4.10;;;;;;;;;;5042396;28;20388;-18
2022/06/17 14:19:31;;;;;;;5.00;3.28;;;;;;;;;;5048214;28;20234;-16
2022/06/17 14:21:58;;;;;;;7.68;3.67;;;;;;;;;;5051447;28;20312;-18
2022/06/17 14:24:41;;;;;;;12.25;3.53;;;;;;;;;;5052549;28;20221;-17
2022/06/17 14:27:08;;;;;;;5.03;3.47;;;;;;;;;;5045862;28;20244;-17
2022/06/17 14:29:37;;;;;;;9.95;3.60;;;;;;;;;;5045508;28;20238;-17
2022/06/17 14:32:15;;;;;;;8.77;3.38;;;;;;;;;;5046977;28;20241;-17
2022/06/17 14:35:01;;;;;;;7.53;3.05;;;;;;;;;;5049708;28;20230;-18
2022/06/17 14:37:47;;;;;;;10.05;3.33;;;;;;;;;;5046908;28;20618;-17
2022/06/17 14:40:15;;;;;;;8.55;3.58;;;;;;;;;;5049485;28;20244;-18
2022/06/17 14:42:59;;;;;;;6.10;2.72;;;;;;;;;;5049446;28;20234;-18
2022/06/17 14:45:35;;;;;;;9.63;3.22;;;;;;;;;;5043267;28;20241;-17
2022/06/17 14:48:05;;;;;;;8.68;3.05;;;;;;;;;;5044357;28;20747;-17
2022/06/17 14:50:43;;;;;;;6.93;2.97;;;;;;;;;;5043589;28;20234;-17
2022/06/17 14:53:28;;;;;;;8.15;3.10;;;;;;;;;;5050872;28;21101;-17
2022/06/17 14:56:01;;;;;;;6.40;3.00;;;;;;;;;;5045144;28;20234;-17
2022/06/17 14:58:46;;;;;;;5.47;3.00;;;;;;;;;;5050688;28;20241;-17
2022/06/17 15:01:19;;;;;;;6.15;2.70;;;;;;;;;;5035291;28;20244;-17
2022/06/17 15:03:48;;;;;;;6.07;3.10;;;;;;;;;;5050275;28;20230;-18
2022/06/17 15:06:16;;;;;;;5.63;2.95;;;;;;;;;;5044481;28;20280;-17